메인 페이지
METAR-TAF:

METAR-TAF

공항 :

포트오브스페인, 트리니다드 섬, 트리니다드 토바고

위도: 10-37N, 경도: 061-21W, 고도: 12m

현재 날씨관측

예보는 58분 전, 04:00시(UTC)에 발표되었습니다.
무풍
온도 26°C
습도 94%
기압 1012 hPa
시정 10km 이상
고도 1600ft 상공 구름 조금

METAR: TTPP 160400Z 00000KT 9999 FEW016 26/25 Q1012 NOSIG

시각: 00:58 (04:58 UTC)

예보

예보는 6 시간 58분 전, 22:00시(UTC)에 발표되었습니다.
예보 대상 시간: 16일 00시부터 16일 24시까지 (UTC)
동북동5kt
시정 10km 이상
고도 1600ft 상공 구름 보통
확률 40% :
일시적
16일 00시부터 16일 06시까지 (UTC)
시정: 6000m
고도 1000ft 상공 구름 조금, 적란운.
고도 1500ft 상공 구름 많음
소나기
일시적
16일 10시부터 16일 22시까지 (UTC)
12kt, 순간 최대 풍속 25kt
시정: 4000m
고도 1200ft 상공 구름 조금, 적란운.
고도 1800ft 상공 구름 많음
소나기
전환 중
16일 12시부터 16일 14시까지 (UTC)
12kt
고도 2000ft 상공 구름 보통
고도 3800ft 상공 구름 보통
확률 40% :
일시적
16일 15시부터 16일 21시까지 (UTC)
시정: 2000m
고도 1000ft 상공 구름 보통, 적란운.
뇌우, 비

TAF: TTPP 152200Z 1600/1624 07005KT 9999 SCT016 PROB40 TEMPO 1600/1606 6000 SHRA FEW010CB BKN015 TEMPO 1610/1622 09012G25KT 4000 SHRA FEW012CB BKN018 BECMG 1612/1614 09012KT SCT020 SCT038 PROB40 TEMPO 1615/1621 2000 TSRA SCT010CB

4,000개 이상의 공항 관측 자료 및 예보 (METAR 및 TAF 보고).

지도상에서 검색 가능한 기상관측소가 노란 점과 빨간 점으로 표시되어 있습니다.

기상관측소 명을 보려면 표시 위로 마우스를 이동하세요.

날씨 관측과 예보를 보려면 클릭하세요.

지도 변경 : 확대하려면 엑스 표시가 있는 녹색 버튼, 축소하려면 빼기 표시가 있는 녹색 버튼, 다음 페이지의 지도를 보려면 녹색 화살표를 클릭하세요.


METAR-TAF: